sensor_id;sensor_type;location;lat;lon;timestamp;P1;durP1;ratioP1;P2;durP2;ratioP2
77864;SDS011;67061;48.524;9.040;2023-04-19T00:02:02;9.60;;;6.43;;
77864;SDS011;67061;48.524;9.040;2023-04-19T00:04:28;11.40;;;6.60;;
77864;SDS011;67061;48.524;9.040;2023-04-19T00:06:59;10.27;;;6.78;;
77864;SDS011;67061;48.524;9.040;2023-04-19T00:09:27;12.95;;;7.50;;
77864;SDS011;67061;48.524;9.040;2023-04-19T00:11:53;9.25;;;6.47;;
77864;SDS011;67061;48.524;9.040;2023-04-19T00:14:23;10.60;;;6.65;;
77864;SDS011;67061;48.524;9.040;2023-04-19T00:16:50;10.43;;;7.25;;
77864;SDS011;67061;48.524;9.040;2023-04-19T00:19:17;10.85;;;7.30;;
77864;SDS011;67061;48.524;9.040;2023-04-19T00:21:45;11.55;;;6.88;;
77864;SDS011;67061;48.524;9.040;2023-04-19T00:24:14;10.57;;;6.88;;
77864;SDS011;67061;48.524;9.040;2023-04-19T00:26:41;11.07;;;6.93;;
77864;SDS011;67061;48.524;9.040;2023-04-19T00:29:08;9.57;;;6.65;;
77864;SDS011;67061;48.524;9.040;2023-04-19T00:31:35;9.43;;;6.45;;
77864;SDS011;67061;48.524;9.040;2023-04-19T00:34:03;11.45;;;7.63;;
77864;SDS011;67061;48.524;9.040;2023-04-19T00:36:30;10.57;;;7.03;;
77864;SDS011;67061;48.524;9.040;2023-04-19T00:38:57;10.77;;;6.65;;
77864;SDS011;67061;48.524;9.040;2023-04-19T00:41:25;10.77;;;7.57;;
77864;SDS011;67061;48.524;9.040;2023-04-19T00:43:52;10.27;;;6.80;;
77864;SDS011;67061;48.524;9.040;2023-04-19T00:46:19;11.90;;;7.28;;
77864;SDS011;67061;48.524;9.040;2023-04-19T00:48:47;11.38;;;6.80;;
77864;SDS011;67061;48.524;9.040;2023-04-19T00:51:14;11.32;;;7.30;;
77864;SDS011;67061;48.524;9.040;2023-04-19T00:53:41;10.45;;;6.50;;
77864;SDS011;67061;48.524;9.040;2023-04-19T00:56:09;10.50;;;7.10;;
77864;SDS011;67061;48.524;9.040;2023-04-19T00:58:38;11.05;;;7.55;;
77864;SDS011;67061;48.524;9.040;2023-04-19T01:01:05;10.57;;;7.13;;
77864;SDS011;67061;48.524;9.040;2023-04-19T01:03:31;13.20;;;8.05;;
77864;SDS011;67061;48.524;9.040;2023-04-19T01:05:59;10.55;;;7.10;;
77864;SDS011;67061;48.524;9.040;2023-04-19T01:08:26;12.30;;;7.82;;
77864;SDS011;67061;48.524;9.040;2023-04-19T01:10:53;10.82;;;7.22;;
77864;SDS011;67061;48.524;9.040;2023-04-19T01:13:20;11.18;;;6.93;;
77864;SDS011;67061;48.524;9.040;2023-04-19T01:15:48;11.70;;;8.05;;
77864;SDS011;67061;48.524;9.040;2023-04-19T01:18:15;11.60;;;7.45;;
77864;SDS011;67061;48.524;9.040;2023-04-19T01:20:43;11.65;;;7.35;;
77864;SDS011;67061;48.524;9.040;2023-04-19T01:23:11;10.75;;;7.15;;
77864;SDS011;67061;48.524;9.040;2023-04-19T01:25:38;12.27;;;7.82;;
77864;SDS011;67061;48.524;9.040;2023-04-19T01:28:05;11.30;;;7.13;;
77864;SDS011;67061;48.524;9.040;2023-04-19T01:30:32;15.05;;;8.55;;
77864;SDS011;67061;48.524;9.040;2023-04-19T01:33:00;11.45;;;7.15;;
77864;SDS011;67061;48.524;9.040;2023-04-19T01:35:27;11.70;;;7.07;;
77864;SDS011;67061;48.524;9.040;2023-04-19T01:37:54;15.50;;;7.63;;
77864;SDS011;67061;48.524;9.040;2023-04-19T01:40:23;11.43;;;7.32;;
77864;SDS011;67061;48.524;9.040;2023-04-19T01:42:51;11.60;;;7.30;;
77864;SDS011;67061;48.524;9.040;2023-04-19T01:45:18;12.10;;;7.32;;
77864;SDS011;67061;48.524;9.040;2023-04-19T01:47:45;13.13;;;7.55;;
77864;SDS011;67061;48.524;9.040;2023-04-19T01:50:12;11.95;;;7.07;;
77864;SDS011;67061;48.524;9.040;2023-04-19T01:52:39;11.65;;;7.63;;
77864;SDS011;67061;48.524;9.040;2023-04-19T01:55:06;11.90;;;7.50;;
77864;SDS011;67061;48.524;9.040;2023-04-19T01:57:35;12.55;;;7.50;;
77864;SDS011;67061;48.524;9.040;2023-04-19T02:00:02;11.52;;;7.65;;
77864;SDS011;67061;48.524;9.040;2023-04-19T02:02:29;11.60;;;7.47;;
77864;SDS011;67061;48.524;9.040;2023-04-19T02:04:56;11.52;;;7.47;;
77864;SDS011;67061;48.524;9.040;2023-04-19T02:07:23;13.43;;;8.05;;
77864;SDS011;67061;48.524;9.040;2023-04-19T02:09:50;12.30;;;7.50;;
77864;SDS011;67061;48.524;9.040;2023-04-19T02:12:17;12.02;;;7.88;;
77864;SDS011;67061;48.524;9.040;2023-04-19T02:14:45;14.27;;;7.53;;
77864;SDS011;67061;48.524;9.040;2023-04-19T02:17:12;11.25;;;7.35;;
77864;SDS011;67061;48.524;9.040;2023-04-19T02:19:39;12.00;;;8.13;;
77864;SDS011;67061;48.524;9.040;2023-04-19T02:22:05;10.77;;;7.15;;
77864;SDS011;67061;48.524;9.040;2023-04-19T02:24:32;13.88;;;8.32;;
77864;SDS011;67061;48.524;9.040;2023-04-19T02:26:59;11.45;;;7.65;;
77864;SDS011;67061;48.524;9.040;2023-04-19T02:29:26;12.18;;;7.70;;
77864;SDS011;67061;48.524;9.040;2023-04-19T02:31:55;11.77;;;7.22;;
77864;SDS011;67061;48.524;9.040;2023-04-19T02:34:21;11.15;;;7.07;;
77864;SDS011;67061;48.524;9.040;2023-04-19T02:36:48;13.07;;;7.72;;
77864;SDS011;67061;48.524;9.040;2023-04-19T02:39:15;11.13;;;7.93;;
77864;SDS011;67061;48.524;9.040;2023-04-19T02:41:42;12.23;;;8.07;;
77864;SDS011;67061;48.524;9.040;2023-04-19T02:44:09;13.55;;;7.47;;
77864;SDS011;67061;48.524;9.040;2023-04-19T02:46:36;11.77;;;7.60;;
77864;SDS011;67061;48.524;9.040;2023-04-19T02:49:05;11.45;;;7.57;;
77864;SDS011;67061;48.524;9.040;2023-04-19T02:51:31;13.90;;;7.57;;
77864;SDS011;67061;48.524;9.040;2023-04-19T02:53:58;12.63;;;7.85;;
77864;SDS011;67061;48.524;9.040;2023-04-19T02:56:25;13.27;;;8.07;;
77864;SDS011;67061;48.524;9.040;2023-04-19T02:58:52;13.32;;;8.65;;
77864;SDS011;67061;48.524;9.040;2023-04-19T03:01:21;12.43;;;7.97;;
77864;SDS011;67061;48.524;9.040;2023-04-19T03:03:48;13.25;;;8.25;;
77864;SDS011;67061;48.524;9.040;2023-04-19T03:06:16;12.63;;;7.65;;
77864;SDS011;67061;48.524;9.040;2023-04-19T03:08:43;10.77;;;7.38;;
77864;SDS011;67061;48.524;9.040;2023-04-19T03:11:10;13.48;;;8.23;;
77864;SDS011;67061;48.524;9.040;2023-04-19T03:13:37;12.70;;;7.65;;
77864;SDS011;67061;48.524;9.040;2023-04-19T03:16:05;12.88;;;8.27;;
77864;SDS011;67061;48.524;9.040;2023-04-19T03:18:32;12.95;;;8.25;;
77864;SDS011;67061;48.524;9.040;2023-04-19T03:20:59;14.77;;;8.63;;
77864;SDS011;67061;48.524;9.040;2023-04-19T03:23:27;12.30;;;8.35;;
77864;SDS011;67061;48.524;9.040;2023-04-19T03:25:54;14.13;;;8.70;;
77864;SDS011;67061;48.524;9.040;2023-04-19T03:28:22;14.40;;;8.18;;
77864;SDS011;67061;48.524;9.040;2023-04-19T03:30:49;12.15;;;8.10;;
77864;SDS011;67061;48.524;9.040;2023-04-19T03:33:15;13.55;;;8.00;;
77864;SDS011;67061;48.524;9.040;2023-04-19T03:35:42;13.70;;;8.02;;
77864;SDS011;67061;48.524;9.040;2023-04-19T03:38:10;13.02;;;8.60;;
77864;SDS011;67061;48.524;9.040;2023-04-19T03:40:38;16.60;;;8.68;;
77864;SDS011;67061;48.524;9.040;2023-04-19T03:43:05;14.73;;;8.48;;
77864;SDS011;67061;48.524;9.040;2023-04-19T03:45:31;13.52;;;8.52;;
77864;SDS011;67061;48.524;9.040;2023-04-19T03:47:58;12.40;;;8.02;;
77864;SDS011;67061;48.524;9.040;2023-04-19T03:50:25;12.95;;;7.95;;
77864;SDS011;67061;48.524;9.040;2023-04-19T03:52:52;13.95;;;8.35;;
77864;SDS011;67061;48.524;9.040;2023-04-19T03:55:19;14.13;;;8.75;;
77864;SDS011;67061;48.524;9.040;2023-04-19T03:57:47;13.63;;;8.57;;
77864;SDS011;67061;48.524;9.040;2023-04-19T04:00:14;14.52;;;8.98;;
77864;SDS011;67061;48.524;9.040;2023-04-19T04:02:41;15.07;;;8.70;;
77864;SDS011;67061;48.524;9.040;2023-04-19T04:05:08;14.48;;;8.93;;
77864;SDS011;67061;48.524;9.040;2023-04-19T04:07:35;14.73;;;9.35;;
77864;SDS011;67061;48.524;9.040;2023-04-19T04:10:02;13.70;;;8.50;;
77864;SDS011;67061;48.524;9.040;2023-04-19T04:12:30;14.65;;;8.55;;
77864;SDS011;67061;48.524;9.040;2023-04-19T04:14:58;12.63;;;8.90;;
77864;SDS011;67061;48.524;9.040;2023-04-19T04:17:25;15.43;;;8.07;;
77864;SDS011;67061;48.524;9.040;2023-04-19T04:19:52;12.70;;;8.40;;
77864;SDS011;67061;48.524;9.040;2023-04-19T04:22:19;12.60;;;8.43;;
77864;SDS011;67061;48.524;9.040;2023-04-19T04:24:46;13.18;;;8.23;;
77864;SDS011;67061;48.524;9.040;2023-04-19T04:27:13;13.23;;;9.00;;
77864;SDS011;67061;48.524;9.040;2023-04-19T04:29:44;15.00;;;9.15;;
77864;SDS011;67061;48.524;9.040;2023-04-19T04:32:12;13.75;;;8.43;;
77864;SDS011;67061;48.524;9.040;2023-04-19T04:34:42;13.95;;;8.25;;
77864;SDS011;67061;48.524;9.040;2023-04-19T04:37:09;13.45;;;8.63;;
77864;SDS011;67061;48.524;9.040;2023-04-19T04:39:37;15.00;;;9.07;;
77864;SDS011;67061;48.524;9.040;2023-04-19T04:42:04;15.70;;;9.55;;
77864;SDS011;67061;48.524;9.040;2023-04-19T04:44:32;14.63;;;9.13;;
77864;SDS011;67061;48.524;9.040;2023-04-19T04:46:59;14.93;;;8.43;;
77864;SDS011;67061;48.524;9.040;2023-04-19T04:49:28;13.95;;;9.13;;
77864;SDS011;67061;48.524;9.040;2023-04-19T04:51:55;15.98;;;9.43;;
77864;SDS011;67061;48.524;9.040;2023-04-19T04:54:22;13.82;;;8.90;;
77864;SDS011;67061;48.524;9.040;2023-04-19T04:56:49;18.35;;;9.52;;
77864;SDS011;67061;48.524;9.040;2023-04-19T04:59:16;17.40;;;9.15;;
77864;SDS011;67061;48.524;9.040;2023-04-19T05:01:43;16.05;;;9.48;;
77864;SDS011;67061;48.524;9.040;2023-04-19T05:04:10;13.07;;;8.18;;
77864;SDS011;67061;48.524;9.040;2023-04-19T05:06:38;15.40;;;8.82;;
77864;SDS011;67061;48.524;9.040;2023-04-19T05:09:05;15.27;;;9.07;;
77864;SDS011;67061;48.524;9.040;2023-04-19T05:11:32;16.27;;;9.48;;
77864;SDS011;67061;48.524;9.040;2023-04-19T05:14:02;15.23;;;9.05;;
77864;SDS011;67061;48.524;9.040;2023-04-19T05:16:31;13.55;;;9.00;;
77864;SDS011;67061;48.524;9.040;2023-04-19T05:18:58;13.82;;;8.38;;
77864;SDS011;67061;48.524;9.040;2023-04-19T05:21:25;16.38;;;9.07;;
77864;SDS011;67061;48.524;9.040;2023-04-19T05:23:53;14.90;;;8.85;;
77864;SDS011;67061;48.524;9.040;2023-04-19T05:26:20;16.60;;;8.88;;
77864;SDS011;67061;48.524;9.040;2023-04-19T05:28:47;14.07;;;8.75;;
77864;SDS011;67061;48.524;9.040;2023-04-19T05:31:14;14.77;;;8.80;;
77864;SDS011;67061;48.524;9.040;2023-04-19T05:33:42;17.13;;;10.52;;
77864;SDS011;67061;48.524;9.040;2023-04-19T05:36:09;17.38;;;10.18;;
77864;SDS011;67061;48.524;9.040;2023-04-19T05:38:36;14.30;;;9.32;;
77864;SDS011;67061;48.524;9.040;2023-04-19T05:41:04;14.25;;;8.50;;
77864;SDS011;67061;48.524;9.040;2023-04-19T05:43:31;14.30;;;9.07;;
77864;SDS011;67061;48.524;9.040;2023-04-19T05:45:58;16.40;;;9.40;;
77864;SDS011;67061;48.524;9.040;2023-04-19T05:48:25;14.73;;;9.38;;
77864;SDS011;67061;48.524;9.040;2023-04-19T05:50:51;15.10;;;9.65;;
77864;SDS011;67061;48.524;9.040;2023-04-19T05:53:20;14.32;;;8.95;;
77864;SDS011;67061;48.524;9.040;2023-04-19T05:55:47;14.45;;;9.27;;
77864;SDS011;67061;48.524;9.040;2023-04-19T05:58:17;15.18;;;9.95;;
77864;SDS011;67061;48.524;9.040;2023-04-19T06:00:43;14.35;;;8.25;;
77864;SDS011;67061;48.524;9.040;2023-04-19T06:03:10;15.00;;;9.32;;
77864;SDS011;67061;48.524;9.040;2023-04-19T06:05:37;16.15;;;9.50;;
77864;SDS011;67061;48.524;9.040;2023-04-19T06:08:05;17.25;;;9.57;;
77864;SDS011;67061;48.524;9.040;2023-04-19T06:10:33;15.32;;;9.00;;
77864;SDS011;67061;48.524;9.040;2023-04-19T06:13:00;15.95;;;9.13;;
77864;SDS011;67061;48.524;9.040;2023-04-19T06:15:29;13.63;;;8.80;;
77864;SDS011;67061;48.524;9.040;2023-04-19T06:17:56;15.27;;;9.20;;
77864;SDS011;67061;48.524;9.040;2023-04-19T06:20:23;14.35;;;8.93;;
77864;SDS011;67061;48.524;9.040;2023-04-19T06:22:49;14.63;;;9.70;;
77864;SDS011;67061;48.524;9.040;2023-04-19T06:25:16;14.55;;;8.93;;
77864;SDS011;67061;48.524;9.040;2023-04-19T06:27:43;15.30;;;9.27;;
77864;SDS011;67061;48.524;9.040;2023-04-19T06:30:10;18.13;;;9.20;;
77864;SDS011;67061;48.524;9.040;2023-04-19T06:32:39;17.38;;;9.35;;
77864;SDS011;67061;48.524;9.040;2023-04-19T06:35:06;14.05;;;8.52;;
77864;SDS011;67061;48.524;9.040;2023-04-19T06:37:33;17.55;;;9.32;;
77864;SDS011;67061;48.524;9.040;2023-04-19T06:40:00;14.60;;;9.02;;
77864;SDS011;67061;48.524;9.040;2023-04-19T06:42:29;15.00;;;8.52;;
77864;SDS011;67061;48.524;9.040;2023-04-19T06:44:55;13.18;;;8.48;;
77864;SDS011;67061;48.524;9.040;2023-04-19T06:47:22;14.90;;;8.93;;
77864;SDS011;67061;48.524;9.040;2023-04-19T06:49:51;13.75;;;8.45;;
77864;SDS011;67061;48.524;9.040;2023-04-19T06:52:18;14.45;;;8.38;;
77864;SDS011;67061;48.524;9.040;2023-04-19T06:54:46;14.02;;;8.70;;
77864;SDS011;67061;48.524;9.040;2023-04-19T06:57:13;18.85;;;10.05;;
77864;SDS011;67061;48.524;9.040;2023-04-19T06:59:40;15.45;;;8.77;;
77864;SDS011;67061;48.524;9.040;2023-04-19T07:02:07;14.38;;;8.55;;
77864;SDS011;67061;48.524;9.040;2023-04-19T07:04:34;15.77;;;9.50;;
77864;SDS011;67061;48.524;9.040;2023-04-19T07:07:03;14.32;;;8.52;;
77864;SDS011;67061;48.524;9.040;2023-04-19T07:09:30;13.13;;;8.73;;
77864;SDS011;67061;48.524;9.040;2023-04-19T07:11:57;14.45;;;8.75;;
77864;SDS011;67061;48.524;9.040;2023-04-19T07:14:24;14.73;;;9.98;;
77864;SDS011;67061;48.524;9.040;2023-04-19T07:16:51;12.85;;;8.20;;
77864;SDS011;67061;48.524;9.040;2023-04-19T07:19:18;16.35;;;8.70;;
77864;SDS011;67061;48.524;9.040;2023-04-19T07:21:46;14.00;;;8.77;;
77864;SDS011;67061;48.524;9.040;2023-04-19T07:24:15;14.13;;;8.68;;
77864;SDS011;67061;48.524;9.040;2023-04-19T07:26:42;14.90;;;9.00;;
77864;SDS011;67061;48.524;9.040;2023-04-19T07:29:09;15.00;;;8.77;;
77864;SDS011;67061;48.524;9.040;2023-04-19T07:31:36;14.70;;;9.13;;
77864;SDS011;67061;48.524;9.040;2023-04-19T07:34:02;15.05;;;8.23;;
77864;SDS011;67061;48.524;9.040;2023-04-19T07:36:29;15.10;;;9.40;;
77864;SDS011;67061;48.524;9.040;2023-04-19T07:38:59;13.20;;;8.60;;
77864;SDS011;67061;48.524;9.040;2023-04-19T07:41:27;15.40;;;9.13;;
77864;SDS011;67061;48.524;9.040;2023-04-19T07:43:54;13.75;;;8.52;;
77864;SDS011;67061;48.524;9.040;2023-04-19T07:46:21;14.65;;;8.98;;
77864;SDS011;67061;48.524;9.040;2023-04-19T07:48:48;14.57;;;9.13;;
77864;SDS011;67061;48.524;9.040;2023-04-19T07:51:15;16.38;;;8.63;;
77864;SDS011;67061;48.524;9.040;2023-04-19T07:53:43;16.42;;;8.65;;
77864;SDS011;67061;48.524;9.040;2023-04-19T07:56:12;14.13;;;8.50;;
77864;SDS011;67061;48.524;9.040;2023-04-19T07:58:41;12.80;;;8.35;;
77864;SDS011;67061;48.524;9.040;2023-04-19T08:01:07;13.73;;;8.32;;
77864;SDS011;67061;48.524;9.040;2023-04-19T08:03:34;12.95;;;7.97;;
77864;SDS011;67061;48.524;9.040;2023-04-19T08:06:02;11.70;;;7.72;;
77864;SDS011;67061;48.524;9.040;2023-04-19T08:08:31;12.48;;;7.97;;
77864;SDS011;67061;48.524;9.040;2023-04-19T08:10:58;14.05;;;7.78;;
77864;SDS011;67061;48.524;9.040;2023-04-19T08:13:26;12.63;;;7.75;;
77864;SDS011;67061;48.524;9.040;2023-04-19T08:15:54;13.27;;;7.38;;
77864;SDS011;67061;48.524;9.040;2023-04-19T08:18:21;13.38;;;8.18;;
77864;SDS011;67061;48.524;9.040;2023-04-19T08:20:48;13.20;;;8.15;;
77864;SDS011;67061;48.524;9.040;2023-04-19T08:23:16;11.07;;;7.28;;
77864;SDS011;67061;48.524;9.040;2023-04-19T08:25:43;12.80;;;8.00;;
77864;SDS011;67061;48.524;9.040;2023-04-19T08:28:10;13.05;;;7.72;;
77864;SDS011;67061;48.524;9.040;2023-04-19T08:30:37;12.20;;;7.57;;
77864;SDS011;67061;48.524;9.040;2023-04-19T08:33:06;11.43;;;7.57;;
77864;SDS011;67061;48.524;9.040;2023-04-19T08:35:33;11.95;;;7.68;;
77864;SDS011;67061;48.524;9.040;2023-04-19T08:38:01;13.00;;;7.50;;
77864;SDS011;67061;48.524;9.040;2023-04-19T08:40:29;14.32;;;8.30;;
77864;SDS011;67061;48.524;9.040;2023-04-19T08:42:56;11.15;;;7.60;;
77864;SDS011;67061;48.524;9.040;2023-04-19T08:45:23;13.43;;;7.68;;
77864;SDS011;67061;48.524;9.040;2023-04-19T08:47:53;11.98;;;8.00;;
77864;SDS011;67061;48.524;9.040;2023-04-19T08:50:22;17.13;;;9.55;;
77864;SDS011;67061;48.524;9.040;2023-04-19T08:52:49;12.98;;;8.75;;
77864;SDS011;67061;48.524;9.040;2023-04-19T08:55:16;12.60;;;8.20;;
77864;SDS011;67061;48.524;9.040;2023-04-19T08:57:44;11.35;;;7.72;;
77864;SDS011;67061;48.524;9.040;2023-04-19T09:00:11;11.32;;;7.30;;
77864;SDS011;67061;48.524;9.040;2023-04-19T09:02:45;12.70;;;7.35;;
77864;SDS011;67061;48.524;9.040;2023-04-19T09:05:13;12.95;;;8.30;;
77864;SDS011;67061;48.524;9.040;2023-04-19T09:07:41;12.15;;;7.75;;
77864;SDS011;67061;48.524;9.040;2023-04-19T09:10:09;11.25;;;8.15;;
77864;SDS011;67061;48.524;9.040;2023-04-19T09:12:38;13.40;;;7.53;;
77864;SDS011;67061;48.524;9.040;2023-04-19T09:15:06;12.70;;;8.38;;
77864;SDS011;67061;48.524;9.040;2023-04-19T09:17:34;12.88;;;8.13;;
77864;SDS011;67061;48.524;9.040;2023-04-19T09:20:02;12.40;;;7.95;;
77864;SDS011;67061;48.524;9.040;2023-04-19T09:22:30;12.57;;;7.88;;
77864;SDS011;67061;48.524;9.040;2023-04-19T09:24:59;11.82;;;7.88;;
77864;SDS011;67061;48.524;9.040;2023-04-19T09:27:27;13.15;;;7.70;;
77864;SDS011;67061;48.524;9.040;2023-04-19T09:29:55;13.02;;;7.75;;
77864;SDS011;67061;48.524;9.040;2023-04-19T09:32:24;11.90;;;7.97;;
77864;SDS011;67061;48.524;9.040;2023-04-19T09:34:53;11.60;;;7.60;;
77864;SDS011;67061;48.524;9.040;2023-04-19T09:37:20;11.13;;;7.43;;
77864;SDS011;67061;48.524;9.040;2023-04-19T09:39:47;11.27;;;7.90;;
77864;SDS011;67061;48.524;9.040;2023-04-19T09:42:16;10.50;;;6.82;;
77864;SDS011;67061;48.524;9.040;2023-04-19T09:44:56;11.13;;;7.10;;
77864;SDS011;67061;48.524;9.040;2023-04-19T09:47:24;11.50;;;7.30;;
77864;SDS011;67061;48.524;9.040;2023-04-19T09:50:03;13.18;;;7.10;;
77864;SDS011;67061;48.524;9.040;2023-04-19T09:52:31;13.20;;;7.40;;
77864;SDS011;67061;48.524;9.040;2023-04-19T09:54:59;11.48;;;7.25;;
77864;SDS011;67061;48.524;9.040;2023-04-19T09:57:29;11.32;;;7.72;;
77864;SDS011;67061;48.524;9.040;2023-04-19T09:59:57;10.45;;;7.38;;
77864;SDS011;67061;48.524;9.040;2023-04-19T10:02:25;10.60;;;7.90;;
77864;SDS011;67061;48.524;9.040;2023-04-19T10:04:56;10.27;;;6.80;;
77864;SDS011;67061;48.524;9.040;2023-04-19T10:07:23;12.10;;;7.47;;
77864;SDS011;67061;48.524;9.040;2023-04-19T10:09:52;11.52;;;6.63;;
77864;SDS011;67061;48.524;9.040;2023-04-19T10:12:21;10.55;;;6.47;;
77864;SDS011;67061;48.524;9.040;2023-04-19T10:14:51;11.70;;;7.75;;
77864;SDS011;67061;48.524;9.040;2023-04-19T10:17:19;10.43;;;6.93;;
77864;SDS011;67061;48.524;9.040;2023-04-19T10:19:48;9.93;;;6.72;;
77864;SDS011;67061;48.524;9.040;2023-04-19T10:22:20;9.50;;;6.80;;
77864;SDS011;67061;48.524;9.040;2023-04-19T10:25:06;9.60;;;6.10;;
77864;SDS011;67061;48.524;9.040;2023-04-19T10:27:35;11.35;;;6.28;;
77864;SDS011;67061;48.524;9.040;2023-04-19T10:30:09;9.65;;;6.18;;
77864;SDS011;67061;48.524;9.040;2023-04-19T10:32:43;9.73;;;6.20;;
77864;SDS011;67061;48.524;9.040;2023-04-19T10:35:16;9.93;;;6.45;;
77864;SDS011;67061;48.524;9.040;2023-04-19T10:38:04;8.73;;;5.72;;
77864;SDS011;67061;48.524;9.040;2023-04-19T10:43:25;8.38;;;5.25;;
77864;SDS011;67061;48.524;9.040;2023-04-19T10:45:54;9.43;;;6.05;;
77864;SDS011;67061;48.524;9.040;2023-04-19T10:48:35;8.73;;;6.10;;
77864;SDS011;67061;48.524;9.040;2023-04-19T10:51:05;9.70;;;6.45;;
77864;SDS011;67061;48.524;9.040;2023-04-19T10:53:41;8.50;;;5.82;;
77864;SDS011;67061;48.524;9.040;2023-04-19T10:56:20;9.68;;;6.53;;
77864;SDS011;67061;48.524;9.040;2023-04-19T10:59:10;8.52;;;5.35;;
77864;SDS011;67061;48.524;9.040;2023-04-19T11:01:47;8.38;;;6.85;;
77864;SDS011;67061;48.524;9.040;2023-04-19T11:04:16;8.68;;;6.30;;
77864;SDS011;67061;48.524;9.040;2023-04-19T11:07:00;9.27;;;6.18;;
77864;SDS011;67061;48.524;9.040;2023-04-19T11:09:29;8.07;;;5.60;;
77864;SDS011;67061;48.524;9.040;2023-04-19T11:11:59;7.55;;;5.32;;
77864;SDS011;67061;48.524;9.040;2023-04-19T11:14:29;8.00;;;5.88;;
77864;SDS011;67061;48.524;9.040;2023-04-19T11:17:01;8.93;;;5.65;;
77864;SDS011;67061;48.524;9.040;2023-04-19T11:19:29;8.00;;;5.93;;
77864;SDS011;67061;48.524;9.040;2023-04-19T11:21:57;8.18;;;5.65;;
77864;SDS011;67061;48.524;9.040;2023-04-19T11:24:24;7.90;;;5.00;;
77864;SDS011;67061;48.524;9.040;2023-04-19T11:26:51;7.75;;;4.97;;
77864;SDS011;67061;48.524;9.040;2023-04-19T11:29:21;8.52;;;5.18;;
77864;SDS011;67061;48.524;9.040;2023-04-19T11:31:47;7.55;;;5.80;;
77864;SDS011;67061;48.524;9.040;2023-04-19T11:34:16;11.48;;;5.05;;
77864;SDS011;67061;48.524;9.040;2023-04-19T11:36:47;8.63;;;4.90;;
77864;SDS011;67061;48.524;9.040;2023-04-19T11:39:16;7.80;;;5.00;;
77864;SDS011;67061;48.524;9.040;2023-04-19T11:41:43;8.95;;;4.97;;
77864;SDS011;67061;48.524;9.040;2023-04-19T11:44:15;9.30;;;5.75;;
77864;SDS011;67061;48.524;9.040;2023-04-19T11:49:28;8.23;;;5.60;;
77864;SDS011;67061;48.524;9.040;2023-04-19T11:51:57;9.98;;;6.05;;
77864;SDS011;67061;48.524;9.040;2023-04-19T11:54:27;8.60;;;6.13;;
77864;SDS011;67061;48.524;9.040;2023-04-19T11:57:01;9.25;;;5.72;;
77864;SDS011;67061;48.524;9.040;2023-04-19T11:59:29;9.02;;;5.45;;
77864;SDS011;67061;48.524;9.040;2023-04-19T12:02:04;7.82;;;5.72;;
77864;SDS011;67061;48.524;9.040;2023-04-19T12:04:36;8.98;;;5.35;;
77864;SDS011;67061;48.524;9.040;2023-04-19T12:09:32;8.20;;;5.35;;
77864;SDS011;67061;48.524;9.040;2023-04-19T12:12:00;10.35;;;5.97;;
77864;SDS011;67061;48.524;9.040;2023-04-19T12:14:28;8.93;;;6.22;;
77864;SDS011;67061;48.524;9.040;2023-04-19T12:17:06;8.35;;;5.90;;
77864;SDS011;67061;48.524;9.040;2023-04-19T12:19:35;10.10;;;6.57;;
77864;SDS011;67061;48.524;9.040;2023-04-19T12:22:07;8.98;;;6.15;;
77864;SDS011;67061;48.524;9.040;2023-04-19T12:27:02;8.50;;;5.82;;
77864;SDS011;67061;48.524;9.040;2023-04-19T12:29:30;8.65;;;6.47;;
77864;SDS011;67061;48.524;9.040;2023-04-19T12:31:58;9.88;;;6.22;;
77864;SDS011;67061;48.524;9.040;2023-04-19T12:34:25;9.93;;;6.35;;
77864;SDS011;67061;48.524;9.040;2023-04-19T12:36:54;8.35;;;5.93;;
77864;SDS011;67061;48.524;9.040;2023-04-19T12:39:21;12.07;;;6.38;;
77864;SDS011;67061;48.524;9.040;2023-04-19T12:41:48;9.38;;;6.25;;
77864;SDS011;67061;48.524;9.040;2023-04-19T12:44:15;10.40;;;6.13;;
77864;SDS011;67061;48.524;9.040;2023-04-19T12:46:42;8.90;;;6.25;;
77864;SDS011;67061;48.524;9.040;2023-04-19T12:49:09;9.68;;;6.28;;
77864;SDS011;67061;48.524;9.040;2023-04-19T12:51:35;10.45;;;6.10;;
77864;SDS011;67061;48.524;9.040;2023-04-19T12:54:04;20.55;;;10.35;;
77864;SDS011;67061;48.524;9.040;2023-04-19T12:58:58;11.00;;;6.53;;
77864;SDS011;67061;48.524;9.040;2023-04-19T13:01:25;10.77;;;7.18;;
77864;SDS011;67061;48.524;9.040;2023-04-19T13:03:52;11.35;;;7.47;;
77864;SDS011;67061;48.524;9.040;2023-04-19T13:06:19;11.40;;;7.03;;
77864;SDS011;67061;48.524;9.040;2023-04-19T13:08:46;11.60;;;6.72;;
77864;SDS011;67061;48.524;9.040;2023-04-19T13:11:14;11.85;;;7.18;;
77864;SDS011;67061;48.524;9.040;2023-04-19T13:13:47;10.85;;;7.60;;
77864;SDS011;67061;48.524;9.040;2023-04-19T13:16:15;14.07;;;7.10;;
77864;SDS011;67061;48.524;9.040;2023-04-19T13:18:42;12.13;;;7.22;;
77864;SDS011;67061;48.524;9.040;2023-04-19T13:21:09;13.73;;;7.63;;
77864;SDS011;67061;48.524;9.040;2023-04-19T13:23:36;11.55;;;7.72;;
77864;SDS011;67061;48.524;9.040;2023-04-19T13:26:03;11.43;;;7.40;;
77864;SDS011;67061;48.524;9.040;2023-04-19T13:28:31;12.57;;;8.13;;
77864;SDS011;67061;48.524;9.040;2023-04-19T13:30:59;12.57;;;8.02;;
77864;SDS011;67061;48.524;9.040;2023-04-19T13:33:27;13.10;;;8.02;;
77864;SDS011;67061;48.524;9.040;2023-04-19T13:35:54;13.60;;;8.40;;
77864;SDS011;67061;48.524;9.040;2023-04-19T13:38:21;12.35;;;8.00;;
77864;SDS011;67061;48.524;9.040;2023-04-19T13:40:48;12.27;;;7.90;;
77864;SDS011;67061;48.524;9.040;2023-04-19T13:43:15;11.75;;;7.57;;
77864;SDS011;67061;48.524;9.040;2023-04-19T13:45:44;12.25;;;7.90;;
77864;SDS011;67061;48.524;9.040;2023-04-19T13:48:11;10.20;;;6.82;;
77864;SDS011;67061;48.524;9.040;2023-04-19T13:50:38;11.32;;;7.18;;
77864;SDS011;67061;48.524;9.040;2023-04-19T13:53:04;11.27;;;7.15;;
77864;SDS011;67061;48.524;9.040;2023-04-19T13:55:32;11.30;;;7.82;;
77864;SDS011;67061;48.524;9.040;2023-04-19T13:57:59;11.88;;;7.72;;
77864;SDS011;67061;48.524;9.040;2023-04-19T14:00:26;12.48;;;7.95;;
77864;SDS011;67061;48.524;9.040;2023-04-19T14:02:54;12.55;;;8.15;;
77864;SDS011;67061;48.524;9.040;2023-04-19T14:05:21;14.07;;;8.80;;
77864;SDS011;67061;48.524;9.040;2023-04-19T14:07:48;16.60;;;10.30;;
77864;SDS011;67061;48.524;9.040;2023-04-19T14:10:16;17.27;;;10.18;;
77864;SDS011;67061;48.524;9.040;2023-04-19T14:12:44;17.23;;;11.27;;
77864;SDS011;67061;48.524;9.040;2023-04-19T14:15:11;19.10;;;10.45;;
77864;SDS011;67061;48.524;9.040;2023-04-19T14:17:41;16.77;;;10.25;;
77864;SDS011;67061;48.524;9.040;2023-04-19T14:20:10;17.23;;;10.27;;
77864;SDS011;67061;48.524;9.040;2023-04-19T14:22:37;19.13;;;10.70;;
77864;SDS011;67061;48.524;9.040;2023-04-19T14:25:05;17.73;;;10.98;;
77864;SDS011;67061;48.524;9.040;2023-04-19T14:27:32;18.45;;;10.43;;
77864;SDS011;67061;48.524;9.040;2023-04-19T14:29:59;18.85;;;10.25;;
77864;SDS011;67061;48.524;9.040;2023-04-19T14:32:27;18.50;;;10.10;;
77864;SDS011;67061;48.524;9.040;2023-04-19T14:34:54;19.73;;;9.80;;
77864;SDS011;67061;48.524;9.040;2023-04-19T14:37:22;20.00;;;10.75;;
77864;SDS011;67061;48.524;9.040;2023-04-19T14:39:50;22.27;;;11.15;;
77864;SDS011;67061;48.524;9.040;2023-04-19T14:42:17;19.40;;;11.07;;
77864;SDS011;67061;48.524;9.040;2023-04-19T14:44:44;20.70;;;11.20;;
77864;SDS011;67061;48.524;9.040;2023-04-19T14:47:11;23.50;;;11.25;;
77864;SDS011;67061;48.524;9.040;2023-04-19T14:49:39;20.38;;;11.07;;
77864;SDS011;67061;48.524;9.040;2023-04-19T14:52:06;24.08;;;11.30;;
77864;SDS011;67061;48.524;9.040;2023-04-19T14:54:34;23.25;;;12.52;;